createdAt,value
2023-10-18T00:00:00.269Z,10.4
2023-10-18T00:05:00.128Z,10.4
2023-10-18T00:10:00.140Z,10.8
2023-10-18T00:15:00.168Z,11.2
2023-10-18T00:20:00.120Z,12.6
2023-10-18T00:25:00.183Z,10.8
2023-10-18T00:30:00.156Z,11.3
2023-10-18T00:35:00.153Z,11.6
2023-10-18T00:40:00.187Z,11.7
2023-10-18T00:45:00.124Z,10.6
2023-10-18T00:50:00.108Z,10.7
2023-10-18T00:55:00.230Z,11.7
2023-10-18T01:00:00.280Z,12.7
2023-10-18T01:05:00.118Z,11
2023-10-18T01:10:00.165Z,13.1
2023-10-18T01:15:00.168Z,13
2023-10-18T01:20:00.120Z,12.4
2023-10-18T01:25:00.148Z,12.2
2023-10-18T01:30:00.142Z,12.5
2023-10-18T01:35:00.145Z,12
2023-10-18T01:40:00.143Z,12.5
2023-10-18T01:45:00.131Z,12.7
2023-10-18T01:50:00.151Z,13.6
2023-10-18T01:55:00.207Z,14.2
2023-10-18T02:00:00.167Z,13.7
2023-10-18T02:05:00.165Z,13.7
2023-10-18T02:10:00.278Z,12.9
2023-10-18T02:15:00.153Z,13.2
2023-10-18T02:20:00.164Z,13
2023-10-18T02:25:00.119Z,13.3
2023-10-18T02:30:00.132Z,15.9
2023-10-18T02:35:00.145Z,13.5
2023-10-18T02:40:05.232Z,16.1
2023-10-18T02:45:00.125Z,14.6
2023-10-18T02:50:00.130Z,14.9
2023-10-18T02:55:00.270Z,15
2023-10-18T03:00:00.208Z,14.4
2023-10-18T03:05:00.100Z,15.3
2023-10-18T03:10:00.195Z,14.9
2023-10-18T03:15:00.145Z,14.1
2023-10-18T03:20:00.089Z,14.1
2023-10-18T03:25:00.305Z,13
2023-10-18T03:30:00.176Z,14.2
2023-10-18T03:35:00.176Z,14.2
2023-10-18T03:40:00.187Z,13.9
2023-10-18T03:45:00.135Z,13.9
2023-10-18T03:50:00.132Z,13.7
2023-10-18T03:55:01.182Z,13.7
2023-10-18T04:00:00.166Z,13
2023-10-18T04:05:00.122Z,13
2023-10-18T04:10:00.131Z,13
2023-10-18T04:15:00.183Z,11.8
2023-10-18T04:20:00.089Z,16.4
2023-10-18T04:25:00.121Z,15.1
2023-10-18T04:30:00.887Z,15.2
2023-10-18T04:35:00.118Z,17.8
2023-10-18T04:40:00.140Z,23.4
2023-10-18T04:45:00.091Z,24
2023-10-18T04:50:00.107Z,22.7
2023-10-18T04:55:00.176Z,22
2023-10-18T05:00:00.185Z,21.8
2023-10-18T05:05:00.084Z,22.1
2023-10-18T05:10:00.115Z,22.2
2023-10-18T05:15:00.116Z,22.6
2023-10-18T05:20:00.087Z,22.4
2023-10-18T05:25:00.112Z,20.9
2023-10-18T05:30:00.112Z,22.1
2023-10-18T05:35:10.764Z,22.3
2023-10-18T05:40:00.100Z,21.6
2023-10-18T05:45:00.092Z,24.2
2023-10-18T05:50:00.148Z,22.9
2023-10-18T05:55:00.243Z,22.5
2023-10-18T06:00:00.096Z,23.8
2023-10-18T06:05:00.098Z,25
2023-10-18T06:10:00.176Z,25.5
2023-10-18T06:15:00.120Z,24.6
2023-10-18T06:20:00.151Z,22.2
2023-10-18T06:25:00.094Z,21.8
2023-10-18T06:30:00.116Z,20.1
2023-10-18T06:35:00.199Z,20.6
2023-10-18T06:40:00.167Z,78.9
2023-10-18T06:45:00.095Z,44.1
2023-10-18T06:50:11.675Z,20.2
2023-10-18T06:55:00.251Z,26.1
2023-10-18T07:00:00.125Z,28.6
2023-10-18T07:05:00.093Z,21.1
2023-10-18T07:10:00.155Z,22.3
2023-10-18T07:15:00.120Z,22.7
2023-10-18T07:20:00.092Z,24.7
2023-10-18T07:25:00.112Z,23.9
2023-10-18T07:30:00.103Z,44.8
2023-10-18T07:35:00.157Z,40.5
2023-10-18T07:40:00.129Z,43.5
2023-10-18T07:45:00.091Z,163.5
2023-10-18T07:50:00.141Z,180.4
2023-10-18T07:55:00.291Z,25.5
2023-10-18T08:00:00.231Z,25.5
2023-10-18T08:05:00.345Z,31.8
2023-10-18T08:10:00.254Z,37.7
2023-10-18T08:15:00.241Z,33.4
2023-10-18T08:20:00.101Z,36
2023-10-18T08:25:00.139Z,23.2
2023-10-18T08:30:00.100Z,24.8
2023-10-18T08:35:00.136Z,22.3
2023-10-18T08:40:00.165Z,28
2023-10-18T08:45:00.110Z,21.9
2023-10-18T08:50:00.104Z,28
2023-10-18T08:55:00.200Z,22.3
2023-10-18T09:00:00.110Z,26.1
2023-10-18T09:05:00.125Z,21
2023-10-18T09:10:00.116Z,23.1
2023-10-18T09:15:00.137Z,16.8
2023-10-18T09:20:00.136Z,16.1
2023-10-18T09:25:00.100Z,14.6
2023-10-18T09:30:00.137Z,13.6
2023-10-18T09:35:00.145Z,14
2023-10-18T09:40:00.107Z,16
2023-10-18T09:45:00.115Z,13.2
2023-10-18T09:50:00.094Z,13.8
2023-10-18T09:55:00.174Z,14.3
2023-10-18T10:00:00.143Z,13.2
2023-10-18T10:05:00.088Z,13.4
2023-10-18T10:10:00.126Z,15.5
2023-10-18T10:15:00.216Z,12.8
2023-10-18T10:20:00.095Z,12.4
2023-10-18T10:25:09.188Z,12.7
2023-10-18T10:30:00.117Z,13.9
2023-10-18T10:35:00.126Z,11.9
2023-10-18T10:40:00.158Z,11.3
2023-10-18T10:45:00.095Z,11.5
2023-10-18T10:50:00.107Z,9.9
2023-10-18T10:55:00.187Z,10.3
2023-10-18T11:00:00.117Z,11.1
2023-10-18T11:05:00.161Z,9.3
2023-10-18T11:10:00.175Z,10.8
2023-10-18T11:15:00.152Z,9.7
2023-10-18T11:20:00.486Z,11.5
2023-10-18T11:25:00.169Z,9.9
2023-10-18T11:30:00.118Z,7.4
2023-10-18T11:35:00.199Z,9.8
2023-10-18T11:40:00.147Z,7.6
2023-10-18T11:45:00.113Z,8.2
2023-10-18T11:50:00.093Z,9
2023-10-18T11:55:00.150Z,10.6
2023-10-18T12:00:00.106Z,7.9
2023-10-18T12:05:00.144Z,7.5
2023-10-18T12:10:00.210Z,7.1
2023-10-18T12:15:00.128Z,6.4
2023-10-18T12:20:00.104Z,6.7
2023-10-18T12:25:00.156Z,7.6
2023-10-18T12:30:00.098Z,8.2
2023-10-18T12:35:00.139Z,7.6
2023-10-18T12:40:00.136Z,7.5
2023-10-18T12:45:00.176Z,6.4
2023-10-18T12:50:00.124Z,6.8
2023-10-18T12:55:00.205Z,6.8
2023-10-18T13:00:00.094Z,7.1
2023-10-18T13:05:00.113Z,6.2
2023-10-18T13:10:00.112Z,8
2023-10-18T13:20:01.176Z,6.3
2023-10-18T13:25:00.074Z,12
2023-10-18T13:30:00.147Z,8.7
2023-10-18T13:35:00.109Z,8.2
2023-10-18T13:40:00.142Z,6.8
2023-10-18T13:45:00.080Z,7.4
2023-10-18T13:50:00.179Z,22.1
2023-10-18T13:55:00.091Z,10.2
2023-10-18T14:00:00.149Z,10.1
2023-10-18T14:05:00.151Z,6.9
2023-10-18T14:10:00.126Z,7.4
2023-10-18T14:15:00.090Z,9.6
2023-10-18T14:20:08.923Z,7.4
2023-10-18T14:25:00.086Z,7
2023-10-18T14:30:00.104Z,9
2023-10-18T14:35:00.099Z,15.9
2023-10-18T14:40:00.131Z,7.5
2023-10-18T14:45:00.078Z,7.4
2023-10-18T14:50:00.206Z,8
2023-10-18T14:55:00.085Z,11.6
2023-10-18T15:00:00.110Z,13.1
2023-10-18T15:05:00.082Z,10.5
2023-10-18T15:10:00.106Z,16.1
2023-10-18T15:15:00.077Z,8.4
2023-10-18T15:20:00.290Z,15.6
2023-10-18T15:25:00.074Z,25.7
2023-10-18T15:30:00.099Z,10.3
2023-10-18T15:35:00.877Z,9.3
2023-10-18T15:40:00.239Z,9
2023-10-18T15:45:00.071Z,9
2023-10-18T15:50:00.135Z,10.4
2023-10-18T15:55:00.082Z,10.9
2023-10-18T16:00:00.150Z,10.5
2023-10-18T16:05:00.103Z,10.9
2023-10-18T16:15:00.087Z,10.3
2023-10-18T16:20:00.123Z,14.3
2023-10-18T16:25:00.066Z,11.3
2023-10-18T16:30:00.121Z,15.1
2023-10-18T16:35:00.190Z,13.7
2023-10-18T16:40:00.169Z,14.1
2023-10-18T16:45:00.088Z,15.3
2023-10-18T16:50:10.612Z,12.8
2023-10-18T16:55:00.086Z,15.3
2023-10-18T17:00:00.116Z,11
2023-10-18T17:05:00.078Z,11.7
2023-10-18T17:10:00.102Z,14.2
2023-10-18T17:15:00.089Z,14.1
2023-10-18T17:20:00.126Z,12.6
2023-10-18T17:25:00.161Z,12.6
2023-10-18T17:30:01.084Z,12.2
2023-10-18T17:35:00.083Z,15.2
2023-10-18T17:40:00.120Z,14.4
2023-10-18T17:45:00.084Z,14.5
2023-10-18T17:50:00.094Z,11.1
2023-10-18T17:55:00.095Z,15.4
2023-10-18T18:00:00.098Z,14.2
2023-10-18T18:05:00.073Z,15.2
2023-10-18T18:10:00.098Z,15.1
2023-10-18T18:15:00.101Z,15.6
2023-10-18T18:20:00.097Z,17
2023-10-18T18:25:00.081Z,13.2
2023-10-18T18:30:00.085Z,13.8
2023-10-18T18:35:00.090Z,16.8
2023-10-18T18:40:00.141Z,13.9
2023-10-18T18:45:00.177Z,17.5
2023-10-18T18:50:00.087Z,14.4
2023-10-18T18:55:00.115Z,10.9
2023-10-18T19:00:00.103Z,14.5
2023-10-18T19:05:00.081Z,12.4
2023-10-18T19:10:00.102Z,15.4
2023-10-18T19:15:00.092Z,13.3
2023-10-18T19:20:00.098Z,11.9
2023-10-18T19:25:00.100Z,13.8
2023-10-18T19:30:00.094Z,12.8
2023-10-18T19:35:00.100Z,11.2
2023-10-18T19:40:00.162Z,12.8
2023-10-18T19:45:00.103Z,12.9
2023-10-18T19:50:00.285Z,16.9
2023-10-18T19:55:00.130Z,14.7
2023-10-18T20:00:00.192Z,14.8
2023-10-18T20:05:00.089Z,13.9
2023-10-18T20:10:00.116Z,13.3
2023-10-18T20:15:00.097Z,12.4
2023-10-18T20:20:00.104Z,13.9
2023-10-18T20:25:00.076Z,11
2023-10-18T20:30:00.097Z,13.4
2023-10-18T20:35:00.095Z,13
2023-10-18T20:40:01.766Z,12.6
2023-10-18T20:45:00.073Z,11
2023-10-18T20:50:00.131Z,13.2
2023-10-18T20:55:00.169Z,13.9
2023-10-18T21:00:00.116Z,12.7
2023-10-18T21:05:00.140Z,12.4
2023-10-18T21:10:00.090Z,14.9
2023-10-18T21:15:00.096Z,12.1
2023-10-18T21:20:00.236Z,13.3
2023-10-18T21:25:00.084Z,12.8
2023-10-18T21:30:00.120Z,13.7
2023-10-18T21:35:00.072Z,15
2023-10-18T21:40:00.143Z,14.3
2023-10-18T21:45:00.150Z,14
2023-10-18T21:50:00.198Z,15.3
2023-10-18T21:55:00.084Z,14.5
2023-10-18T22:00:00.219Z,16.3
2023-10-18T22:05:00.154Z,14.8
2023-10-18T22:10:00.121Z,15.8
2023-10-18T22:15:00.080Z,18.4
2023-10-18T22:20:00.197Z,14.6
2023-10-18T22:25:00.072Z,13.3
2023-10-18T22:30:00.095Z,15.8
2023-10-18T22:35:00.112Z,19.5
2023-10-18T22:40:00.461Z,16.9
2023-10-18T22:45:00.162Z,17.5
2023-10-18T22:50:00.115Z,18.2
2023-10-18T22:55:00.094Z,17.8
2023-10-18T23:00:00.115Z,18.3
2023-10-18T23:05:00.084Z,19.9
2023-10-18T23:10:00.130Z,19.4
2023-10-18T23:15:00.090Z,17.4
2023-10-18T23:20:00.145Z,18.8
2023-10-18T23:25:00.096Z,18.8
2023-10-18T23:30:00.146Z,19.7
2023-10-18T23:35:00.100Z,22.1
2023-10-18T23:40:00.509Z,18.1
2023-10-18T23:45:00.098Z,18.5
2023-10-18T23:50:00.102Z,19.1
2023-10-18T23:55:00.089Z,20.9
